sensor_id;sensor_type;location;lat;lon;timestamp;P1;durP1;ratioP1;P2;durP2;ratioP2
20462;SDS011;10390;53.566;9.980;2023-01-23T00:00:30;12.32;;;8.75;;
20462;SDS011;10390;53.566;9.980;2023-01-23T00:02:55;12.50;;;7.85;;
20462;SDS011;10390;53.566;9.980;2023-01-23T00:05:21;11.43;;;7.82;;
20462;SDS011;10390;53.566;9.980;2023-01-23T00:07:47;12.07;;;8.48;;
20462;SDS011;10390;53.566;9.980;2023-01-23T00:10:13;11.65;;;7.57;;
20462;SDS011;10390;53.566;9.980;2023-01-23T00:12:45;10.20;;;7.60;;
20462;SDS011;10390;53.566;9.980;2023-01-23T00:15:14;14.05;;;7.97;;
20462;SDS011;10390;53.566;9.980;2023-01-23T00:17:40;13.45;;;8.02;;
20462;SDS011;10390;53.566;9.980;2023-01-23T00:20:07;12.13;;;8.40;;
20462;SDS011;10390;53.566;9.980;2023-01-23T00:22:33;11.73;;;7.93;;
20462;SDS011;10390;53.566;9.980;2023-01-23T00:24:59;13.40;;;7.60;;
20462;SDS011;10390;53.566;9.980;2023-01-23T00:27:25;11.95;;;7.50;;
20462;SDS011;10390;53.566;9.980;2023-01-23T00:29:51;12.13;;;7.80;;
20462;SDS011;10390;53.566;9.980;2023-01-23T00:32:17;11.65;;;7.40;;
20462;SDS011;10390;53.566;9.980;2023-01-23T00:34:43;11.07;;;6.90;;
20462;SDS011;10390;53.566;9.980;2023-01-23T00:37:09;12.05;;;7.45;;
20462;SDS011;10390;53.566;9.980;2023-01-23T00:39:35;12.25;;;7.50;;
20462;SDS011;10390;53.566;9.980;2023-01-23T00:42:00;11.25;;;7.40;;
20462;SDS011;10390;53.566;9.980;2023-01-23T00:44:26;11.88;;;8.00;;
20462;SDS011;10390;53.566;9.980;2023-01-23T00:46:52;11.85;;;7.07;;
20462;SDS011;10390;53.566;9.980;2023-01-23T00:49:17;11.48;;;7.32;;
20462;SDS011;10390;53.566;9.980;2023-01-23T00:51:43;11.10;;;7.57;;
20462;SDS011;10390;53.566;9.980;2023-01-23T00:54:10;12.45;;;7.70;;
20462;SDS011;10390;53.566;9.980;2023-01-23T00:56:35;12.52;;;7.90;;
20462;SDS011;10390;53.566;9.980;2023-01-23T00:59:01;10.60;;;7.25;;
20462;SDS011;10390;53.566;9.980;2023-01-23T01:01:27;11.82;;;7.70;;
20462;SDS011;10390;53.566;9.980;2023-01-23T01:03:55;12.32;;;7.38;;
20462;SDS011;10390;53.566;9.980;2023-01-23T01:06:21;11.98;;;7.47;;
20462;SDS011;10390;53.566;9.980;2023-01-23T01:08:47;11.48;;;7.15;;
20462;SDS011;10390;53.566;9.980;2023-01-23T01:11:13;11.82;;;7.40;;
20462;SDS011;10390;53.566;9.980;2023-01-23T01:13:38;11.32;;;7.15;;
20462;SDS011;10390;53.566;9.980;2023-01-23T01:16:04;13.40;;;7.72;;
20462;SDS011;10390;53.566;9.980;2023-01-23T01:18:30;11.43;;;7.88;;
20462;SDS011;10390;53.566;9.980;2023-01-23T01:20:56;12.07;;;7.28;;
20462;SDS011;10390;53.566;9.980;2023-01-23T01:23:22;10.88;;;7.18;;
20462;SDS011;10390;53.566;9.980;2023-01-23T01:25:48;11.55;;;7.70;;
20462;SDS011;10390;53.566;9.980;2023-01-23T01:28:14;12.02;;;7.45;;
20462;SDS011;10390;53.566;9.980;2023-01-23T01:30:40;12.45;;;7.03;;
20462;SDS011;10390;53.566;9.980;2023-01-23T01:33:05;10.07;;;7.43;;
20462;SDS011;10390;53.566;9.980;2023-01-23T01:35:31;12.40;;;7.43;;
20462;SDS011;10390;53.566;9.980;2023-01-23T01:37:57;11.48;;;7.28;;
20462;SDS011;10390;53.566;9.980;2023-01-23T01:40:26;10.00;;;6.75;;
20462;SDS011;10390;53.566;9.980;2023-01-23T01:42:57;10.02;;;6.53;;
20462;SDS011;10390;53.566;9.980;2023-01-23T01:48:22;11.50;;;6.57;;
20462;SDS011;10390;53.566;9.980;2023-01-23T01:50:50;11.18;;;7.07;;
20462;SDS011;10390;53.566;9.980;2023-01-23T01:53:17;11.15;;;7.18;;
20462;SDS011;10390;53.566;9.980;2023-01-23T01:55:44;10.52;;;6.65;;
20462;SDS011;10390;53.566;9.980;2023-01-23T01:58:10;11.23;;;6.90;;
20462;SDS011;10390;53.566;9.980;2023-01-23T02:00:36;9.38;;;6.32;;
20462;SDS011;10390;53.566;9.980;2023-01-23T02:03:02;11.15;;;6.95;;
20462;SDS011;10390;53.566;9.980;2023-01-23T02:10:46;10.95;;;6.80;;
20462;SDS011;10390;53.566;9.980;2023-01-23T02:13:54;11.63;;;6.78;;
20462;SDS011;10390;53.566;9.980;2023-01-23T02:16:07;10.65;;;6.85;;
20462;SDS011;10390;53.566;9.980;2023-01-23T02:18:36;9.50;;;5.93;;
20462;SDS011;10390;53.566;9.980;2023-01-23T02:21:07;11.07;;;6.78;;
20462;SDS011;10390;53.566;9.980;2023-01-23T02:23:40;11.13;;;7.20;;
20462;SDS011;10390;53.566;9.980;2023-01-23T02:26:27;10.60;;;6.90;;
20462;SDS011;10390;53.566;9.980;2023-01-23T02:29:08;9.60;;;6.30;;
20462;SDS011;10390;53.566;9.980;2023-01-23T02:31:34;11.15;;;6.70;;
20462;SDS011;10390;53.566;9.980;2023-01-23T02:34:01;10.50;;;6.82;;
20462;SDS011;10390;53.566;9.980;2023-01-23T02:36:28;9.57;;;6.47;;
20462;SDS011;10390;53.566;9.980;2023-01-23T02:39:04;10.38;;;6.57;;
20462;SDS011;10390;53.566;9.980;2023-01-23T02:41:36;9.45;;;6.43;;
20462;SDS011;10390;53.566;9.980;2023-01-23T02:44:20;11.05;;;6.45;;
20462;SDS011;10390;53.566;9.980;2023-01-23T02:46:52;10.10;;;6.35;;
20462;SDS011;10390;53.566;9.980;2023-01-23T02:49:18;9.70;;;6.78;;
20462;SDS011;10390;53.566;9.980;2023-01-23T02:51:46;9.00;;;6.00;;
20462;SDS011;10390;53.566;9.980;2023-01-23T02:54:15;9.40;;;6.45;;
20462;SDS011;10390;53.566;9.980;2023-01-23T02:56:42;11.88;;;6.60;;
20462;SDS011;10390;53.566;9.980;2023-01-23T02:59:08;9.10;;;5.90;;
20462;SDS011;10390;53.566;9.980;2023-01-23T03:01:52;10.35;;;5.97;;
20462;SDS011;10390;53.566;9.980;2023-01-23T03:04:18;10.20;;;5.75;;
20462;SDS011;10390;53.566;9.980;2023-01-23T03:06:44;9.93;;;5.72;;
20462;SDS011;10390;53.566;9.980;2023-01-23T03:09:11;9.98;;;6.10;;
20462;SDS011;10390;53.566;9.980;2023-01-23T03:11:40;9.43;;;5.80;;
20462;SDS011;10390;53.566;9.980;2023-01-23T03:14:07;9.70;;;6.40;;
20462;SDS011;10390;53.566;9.980;2023-01-23T03:16:34;8.85;;;5.38;;
20462;SDS011;10390;53.566;9.980;2023-01-23T03:19:04;8.90;;;5.50;;
20462;SDS011;10390;53.566;9.980;2023-01-23T03:21:33;10.75;;;6.32;;
20462;SDS011;10390;53.566;9.980;2023-01-23T03:24:02;8.80;;;5.80;;
20462;SDS011;10390;53.566;9.980;2023-01-23T03:26:29;8.80;;;5.85;;
20462;SDS011;10390;53.566;9.980;2023-01-23T03:28:55;10.85;;;6.13;;
20462;SDS011;10390;53.566;9.980;2023-01-23T03:31:39;9.20;;;6.13;;
20462;SDS011;10390;53.566;9.980;2023-01-23T03:34:05;8.98;;;6.25;;
20462;SDS011;10390;53.566;9.980;2023-01-23T03:36:31;8.90;;;5.78;;
20462;SDS011;10390;53.566;9.980;2023-01-23T03:39:01;9.82;;;5.82;;
20462;SDS011;10390;53.566;9.980;2023-01-23T03:41:46;11.82;;;6.45;;
20462;SDS011;10390;53.566;9.980;2023-01-23T03:44:12;8.30;;;5.07;;
20462;SDS011;10390;53.566;9.980;2023-01-23T03:46:38;8.88;;;5.10;;
20462;SDS011;10390;53.566;9.980;2023-01-23T03:49:03;8.82;;;5.25;;
20462;SDS011;10390;53.566;9.980;2023-01-23T03:51:29;8.38;;;5.85;;
20462;SDS011;10390;53.566;9.980;2023-01-23T03:53:55;8.57;;;5.75;;
20462;SDS011;10390;53.566;9.980;2023-01-23T03:56:20;8.82;;;4.97;;
20462;SDS011;10390;53.566;9.980;2023-01-23T03:58:46;8.13;;;5.22;;
20462;SDS011;10390;53.566;9.980;2023-01-23T04:01:11;9.57;;;5.65;;
20462;SDS011;10390;53.566;9.980;2023-01-23T04:03:37;8.30;;;5.10;;
20462;SDS011;10390;53.566;9.980;2023-01-23T04:06:03;9.45;;;5.38;;
20462;SDS011;10390;53.566;9.980;2023-01-23T04:08:29;8.77;;;5.30;;
20462;SDS011;10390;53.566;9.980;2023-01-23T04:11:02;8.68;;;5.10;;
20462;SDS011;10390;53.566;9.980;2023-01-23T04:13:32;8.35;;;5.22;;
20462;SDS011;10390;53.566;9.980;2023-01-23T04:15:58;7.07;;;4.70;;
20462;SDS011;10390;53.566;9.980;2023-01-23T04:18:24;7.95;;;5.00;;
20462;SDS011;10390;53.566;9.980;2023-01-23T04:20:50;7.85;;;4.63;;
20462;SDS011;10390;53.566;9.980;2023-01-23T04:23:15;7.75;;;4.68;;
20462;SDS011;10390;53.566;9.980;2023-01-23T04:25:41;8.25;;;5.18;;
20462;SDS011;10390;53.566;9.980;2023-01-23T04:28:06;8.13;;;5.18;;
20462;SDS011;10390;53.566;9.980;2023-01-23T04:30:32;7.88;;;5.07;;
20462;SDS011;10390;53.566;9.980;2023-01-23T04:32:58;8.32;;;5.10;;
20462;SDS011;10390;53.566;9.980;2023-01-23T04:35:23;8.02;;;4.55;;
20462;SDS011;10390;53.566;9.980;2023-01-23T04:37:49;8.55;;;5.25;;
20462;SDS011;10390;53.566;9.980;2023-01-23T04:40:15;7.22;;;4.90;;
20462;SDS011;10390;53.566;9.980;2023-01-23T04:42:40;6.97;;;4.53;;
20462;SDS011;10390;53.566;9.980;2023-01-23T04:45:07;7.47;;;4.55;;
20462;SDS011;10390;53.566;9.980;2023-01-23T04:47:33;11.48;;;5.05;;
20462;SDS011;10390;53.566;9.980;2023-01-23T04:49:59;7.35;;;4.90;;
20462;SDS011;10390;53.566;9.980;2023-01-23T04:52:24;9.77;;;6.15;;
20462;SDS011;10390;53.566;9.980;2023-01-23T04:54:50;6.85;;;4.50;;
20462;SDS011;10390;53.566;9.980;2023-01-23T04:57:16;10.60;;;5.30;;
20462;SDS011;10390;53.566;9.980;2023-01-23T04:59:41;7.95;;;5.15;;
20462;SDS011;10390;53.566;9.980;2023-01-23T05:02:07;7.60;;;4.80;;
20462;SDS011;10390;53.566;9.980;2023-01-23T05:04:33;7.50;;;4.88;;
20462;SDS011;10390;53.566;9.980;2023-01-23T05:06:59;9.15;;;5.25;;
20462;SDS011;10390;53.566;9.980;2023-01-23T05:09:25;6.95;;;4.90;;
20462;SDS011;10390;53.566;9.980;2023-01-23T05:11:50;7.97;;;5.05;;
20462;SDS011;10390;53.566;9.980;2023-01-23T05:14:16;7.13;;;4.75;;
20462;SDS011;10390;53.566;9.980;2023-01-23T05:16:42;7.50;;;4.88;;
20462;SDS011;10390;53.566;9.980;2023-01-23T05:19:08;7.20;;;4.40;;
20462;SDS011;10390;53.566;9.980;2023-01-23T05:21:33;6.03;;;4.32;;
20462;SDS011;10390;53.566;9.980;2023-01-23T05:23:59;8.30;;;4.75;;
20462;SDS011;10390;53.566;9.980;2023-01-23T05:26:25;6.60;;;4.53;;
20462;SDS011;10390;53.566;9.980;2023-01-23T05:28:51;6.53;;;4.47;;
20462;SDS011;10390;53.566;9.980;2023-01-23T05:31:16;7.10;;;4.78;;
20462;SDS011;10390;53.566;9.980;2023-01-23T05:33:42;6.45;;;4.60;;
20462;SDS011;10390;53.566;9.980;2023-01-23T05:36:07;7.07;;;4.30;;
20462;SDS011;10390;53.566;9.980;2023-01-23T05:38:33;6.47;;;4.32;;
20462;SDS011;10390;53.566;9.980;2023-01-23T05:40:59;7.13;;;4.40;;
20462;SDS011;10390;53.566;9.980;2023-01-23T05:43:25;6.47;;;4.45;;
20462;SDS011;10390;53.566;9.980;2023-01-23T05:45:50;6.15;;;4.07;;
20462;SDS011;10390;53.566;9.980;2023-01-23T05:48:16;6.50;;;4.28;;
20462;SDS011;10390;53.566;9.980;2023-01-23T05:50:41;8.02;;;4.30;;
20462;SDS011;10390;53.566;9.980;2023-01-23T05:53:07;7.68;;;4.43;;
20462;SDS011;10390;53.566;9.980;2023-01-23T05:55:33;6.75;;;4.47;;
20462;SDS011;10390;53.566;9.980;2023-01-23T05:57:58;7.82;;;4.30;;
20462;SDS011;10390;53.566;9.980;2023-01-23T06:00:24;8.25;;;4.97;;
20462;SDS011;10390;53.566;9.980;2023-01-23T06:02:49;6.78;;;4.43;;
20462;SDS011;10390;53.566;9.980;2023-01-23T06:05:15;8.82;;;5.05;;
20462;SDS011;10390;53.566;9.980;2023-01-23T06:07:41;7.28;;;4.68;;
20462;SDS011;10390;53.566;9.980;2023-01-23T06:10:07;9.98;;;4.75;;
20462;SDS011;10390;53.566;9.980;2023-01-23T06:12:33;8.70;;;4.47;;
20462;SDS011;10390;53.566;9.980;2023-01-23T06:14:58;7.00;;;5.18;;
20462;SDS011;10390;53.566;9.980;2023-01-23T06:17:24;7.05;;;4.03;;
20462;SDS011;10390;53.566;9.980;2023-01-23T06:19:49;6.60;;;3.67;;
20462;SDS011;10390;53.566;9.980;2023-01-23T06:22:15;8.10;;;4.13;;
20462;SDS011;10390;53.566;9.980;2023-01-23T06:24:41;7.35;;;4.55;;
20462;SDS011;10390;53.566;9.980;2023-01-23T06:27:06;6.80;;;3.92;;
20462;SDS011;10390;53.566;9.980;2023-01-23T06:29:33;8.20;;;4.15;;
20462;SDS011;10390;53.566;9.980;2023-01-23T06:32:00;6.75;;;4.28;;
20462;SDS011;10390;53.566;9.980;2023-01-23T06:34:25;10.65;;;4.30;;
20462;SDS011;10390;53.566;9.980;2023-01-23T06:36:51;6.95;;;3.80;;
20462;SDS011;10390;53.566;9.980;2023-01-23T06:39:17;7.13;;;4.32;;
20462;SDS011;10390;53.566;9.980;2023-01-23T06:41:42;9.52;;;4.60;;
20462;SDS011;10390;53.566;9.980;2023-01-23T06:44:08;11.25;;;5.07;;
20462;SDS011;10390;53.566;9.980;2023-01-23T06:46:34;10.63;;;4.22;;
20462;SDS011;10390;53.566;9.980;2023-01-23T06:49:00;10.93;;;4.75;;
20462;SDS011;10390;53.566;9.980;2023-01-23T06:51:26;13.80;;;4.88;;
20462;SDS011;10390;53.566;9.980;2023-01-23T06:53:51;11.35;;;4.82;;
20462;SDS011;10390;53.566;9.980;2023-01-23T06:56:17;13.00;;;4.70;;
20462;SDS011;10390;53.566;9.980;2023-01-23T06:58:43;10.20;;;5.07;;
20462;SDS011;10390;53.566;9.980;2023-01-23T07:01:10;9.35;;;4.30;;
20462;SDS011;10390;53.566;9.980;2023-01-23T07:03:39;7.68;;;4.50;;
20462;SDS011;10390;53.566;9.980;2023-01-23T07:06:06;10.65;;;4.80;;
20462;SDS011;10390;53.566;9.980;2023-01-23T07:08:33;8.82;;;4.45;;
20462;SDS011;10390;53.566;9.980;2023-01-23T07:10:59;7.68;;;4.47;;
20462;SDS011;10390;53.566;9.980;2023-01-23T07:13:26;10.93;;;4.65;;
20462;SDS011;10390;53.566;9.980;2023-01-23T07:15:52;9.90;;;4.20;;
20462;SDS011;10390;53.566;9.980;2023-01-23T07:18:17;9.57;;;4.80;;
20462;SDS011;10390;53.566;9.980;2023-01-23T07:20:43;13.73;;;5.88;;
20462;SDS011;10390;53.566;9.980;2023-01-23T07:23:09;12.77;;;5.63;;
20462;SDS011;10390;53.566;9.980;2023-01-23T07:25:36;9.07;;;5.82;;
20462;SDS011;10390;53.566;9.980;2023-01-23T07:28:01;11.00;;;6.10;;
20462;SDS011;10390;53.566;9.980;2023-01-23T07:30:27;12.60;;;6.65;;
20462;SDS011;10390;53.566;9.980;2023-01-23T07:32:53;11.93;;;6.10;;
20462;SDS011;10390;53.566;9.980;2023-01-23T07:35:19;13.50;;;6.43;;
20462;SDS011;10390;53.566;9.980;2023-01-23T07:37:45;12.48;;;6.22;;
20462;SDS011;10390;53.566;9.980;2023-01-23T07:40:11;8.27;;;5.35;;
20462;SDS011;10390;53.566;9.980;2023-01-23T07:42:37;10.32;;;5.90;;
20462;SDS011;10390;53.566;9.980;2023-01-23T07:45:04;14.57;;;5.93;;
20462;SDS011;10390;53.566;9.980;2023-01-23T07:47:30;9.48;;;5.78;;
20462;SDS011;10390;53.566;9.980;2023-01-23T07:49:56;10.02;;;5.93;;
20462;SDS011;10390;53.566;9.980;2023-01-23T07:52:21;8.90;;;5.32;;
20462;SDS011;10390;53.566;9.980;2023-01-23T07:54:47;9.95;;;4.90;;
20462;SDS011;10390;53.566;9.980;2023-01-23T07:57:12;8.43;;;5.07;;
20462;SDS011;10390;53.566;9.980;2023-01-23T07:59:38;10.70;;;5.13;;
20462;SDS011;10390;53.566;9.980;2023-01-23T08:02:03;9.43;;;5.45;;
20462;SDS011;10390;53.566;9.980;2023-01-23T08:04:29;9.73;;;4.57;;
20462;SDS011;10390;53.566;9.980;2023-01-23T08:06:55;7.95;;;5.03;;
20462;SDS011;10390;53.566;9.980;2023-01-23T08:09:20;10.23;;;5.22;;
20462;SDS011;10390;53.566;9.980;2023-01-23T08:11:46;8.13;;;5.75;;
20462;SDS011;10390;53.566;9.980;2023-01-23T08:14:14;7.47;;;4.60;;
20462;SDS011;10390;53.566;9.980;2023-01-23T08:16:40;8.82;;;4.85;;
20462;SDS011;10390;53.566;9.980;2023-01-23T08:19:06;8.77;;;5.30;;
20462;SDS011;10390;53.566;9.980;2023-01-23T08:21:32;10.20;;;5.00;;
20462;SDS011;10390;53.566;9.980;2023-01-23T08:23:59;8.05;;;4.20;;
20462;SDS011;10390;53.566;9.980;2023-01-23T08:26:26;8.48;;;5.07;;
20462;SDS011;10390;53.566;9.980;2023-01-23T08:28:51;6.90;;;4.63;;
20462;SDS011;10390;53.566;9.980;2023-01-23T08:31:17;7.13;;;4.47;;
20462;SDS011;10390;53.566;9.980;2023-01-23T08:33:42;7.05;;;4.82;;
20462;SDS011;10390;53.566;9.980;2023-01-23T08:36:09;8.90;;;4.70;;
20462;SDS011;10390;53.566;9.980;2023-01-23T08:38:37;7.45;;;5.10;;
20462;SDS011;10390;53.566;9.980;2023-01-23T08:41:02;8.20;;;4.90;;
20462;SDS011;10390;53.566;9.980;2023-01-23T08:43:29;7.30;;;5.07;;
20462;SDS011;10390;53.566;9.980;2023-01-23T08:45:56;7.63;;;5.15;;
20462;SDS011;10390;53.566;9.980;2023-01-23T08:48:23;7.95;;;5.15;;
20462;SDS011;10390;53.566;9.980;2023-01-23T08:50:50;7.28;;;4.80;;
20462;SDS011;10390;53.566;9.980;2023-01-23T08:53:21;8.48;;;5.43;;
20462;SDS011;10390;53.566;9.980;2023-01-23T08:55:47;9.38;;;5.13;;
20462;SDS011;10390;53.566;9.980;2023-01-23T08:58:12;6.93;;;4.95;;
20462;SDS011;10390;53.566;9.980;2023-01-23T09:00:38;6.63;;;4.80;;
20462;SDS011;10390;53.566;9.980;2023-01-23T09:03:04;7.40;;;4.82;;
20462;SDS011;10390;53.566;9.980;2023-01-23T09:05:30;6.78;;;4.47;;
20462;SDS011;10390;53.566;9.980;2023-01-23T09:07:57;7.15;;;4.15;;
20462;SDS011;10390;53.566;9.980;2023-01-23T09:10:23;8.10;;;4.90;;
20462;SDS011;10390;53.566;9.980;2023-01-23T09:12:52;8.75;;;5.05;;
20462;SDS011;10390;53.566;9.980;2023-01-23T09:15:19;7.00;;;4.40;;
20462;SDS011;10390;53.566;9.980;2023-01-23T09:17:45;6.40;;;4.70;;
20462;SDS011;10390;53.566;9.980;2023-01-23T09:20:10;6.53;;;4.43;;
20462;SDS011;10390;53.566;9.980;2023-01-23T09:22:36;6.95;;;4.65;;
20462;SDS011;10390;53.566;9.980;2023-01-23T09:25:02;8.05;;;4.97;;
20462;SDS011;10390;53.566;9.980;2023-01-23T09:27:28;7.22;;;4.80;;
20462;SDS011;10390;53.566;9.980;2023-01-23T09:29:53;5.47;;;3.72;;
20462;SDS011;10390;53.566;9.980;2023-01-23T09:32:19;5.90;;;4.07;;
20462;SDS011;10390;53.566;9.980;2023-01-23T09:34:45;6.45;;;4.18;;
20462;SDS011;10390;53.566;9.980;2023-01-23T09:37:13;7.22;;;4.00;;
20462;SDS011;10390;53.566;9.980;2023-01-23T09:39:41;5.40;;;3.90;;
20462;SDS011;10390;53.566;9.980;2023-01-23T09:42:08;7.47;;;4.30;;
20462;SDS011;10390;53.566;9.980;2023-01-23T09:44:48;8.13;;;4.50;;
20462;SDS011;10390;53.566;9.980;2023-01-23T09:47:27;6.40;;;4.20;;
20462;SDS011;10390;53.566;9.980;2023-01-23T09:50:07;7.35;;;4.18;;
20462;SDS011;10390;53.566;9.980;2023-01-23T09:52:40;6.78;;;4.28;;
20462;SDS011;10390;53.566;9.980;2023-01-23T09:55:14;7.10;;;4.70;;
20462;SDS011;10390;53.566;9.980;2023-01-23T09:57:48;6.90;;;4.53;;
20462;SDS011;10390;53.566;9.980;2023-01-23T10:00:23;7.40;;;4.57;;
20462;SDS011;10390;53.566;9.980;2023-01-23T10:02:51;7.38;;;4.70;;
20462;SDS011;10390;53.566;9.980;2023-01-23T10:05:22;7.63;;;4.63;;
20462;SDS011;10390;53.566;9.980;2023-01-23T10:10:44;6.25;;;4.50;;
20462;SDS011;10390;53.566;9.980;2023-01-23T10:19:01;6.15;;;4.18;;
20462;SDS011;10390;53.566;9.980;2023-01-23T10:21:37;7.80;;;4.85;;
20462;SDS011;10390;53.566;9.980;2023-01-23T10:26:55;5.82;;;4.10;;
20462;SDS011;10390;53.566;9.980;2023-01-23T10:29:31;6.57;;;4.40;;
20462;SDS011;10390;53.566;9.980;2023-01-23T10:32:02;7.28;;;4.38;;
20462;SDS011;10390;53.566;9.980;2023-01-23T10:34:34;6.47;;;4.57;;
20462;SDS011;10390;53.566;9.980;2023-01-23T10:37:17;5.70;;;4.00;;
20462;SDS011;10390;53.566;9.980;2023-01-23T10:39:47;5.93;;;3.83;;
20462;SDS011;10390;53.566;9.980;2023-01-23T10:42:25;7.15;;;4.53;;
20462;SDS011;10390;53.566;9.980;2023-01-23T10:44:51;6.05;;;4.40;;
20462;SDS011;10390;53.566;9.980;2023-01-23T10:50:09;6.47;;;4.38;;
20462;SDS011;10390;53.566;9.980;2023-01-23T10:52:36;5.93;;;4.22;;
20462;SDS011;10390;53.566;9.980;2023-01-23T10:57:55;6.63;;;4.80;;
20462;SDS011;10390;53.566;9.980;2023-01-23T11:00:34;7.82;;;4.80;;
20462;SDS011;10390;53.566;9.980;2023-01-23T11:05:45;6.43;;;4.43;;
20462;SDS011;10390;53.566;9.980;2023-01-23T11:08:30;6.40;;;4.20;;
20462;SDS011;10390;53.566;9.980;2023-01-23T11:14:14;6.88;;;4.70;;
20462;SDS011;10390;53.566;9.980;2023-01-23T11:16:46;7.47;;;4.88;;
20462;SDS011;10390;53.566;9.980;2023-01-23T11:19:24;6.03;;;4.50;;
20462;SDS011;10390;53.566;9.980;2023-01-23T11:21:52;6.80;;;5.13;;
20462;SDS011;10390;53.566;9.980;2023-01-23T11:24:20;7.40;;;5.30;;
20462;SDS011;10390;53.566;9.980;2023-01-23T11:27:08;7.53;;;5.13;;
20462;SDS011;10390;53.566;9.980;2023-01-23T11:32:34;8.30;;;5.70;;
20462;SDS011;10390;53.566;9.980;2023-01-23T11:35:11;7.53;;;4.93;;
20462;SDS011;10390;53.566;9.980;2023-01-23T11:37:39;7.63;;;5.15;;
20462;SDS011;10390;53.566;9.980;2023-01-23T11:42:40;7.60;;;4.88;;
20462;SDS011;10390;53.566;9.980;2023-01-23T11:45:24;8.57;;;5.00;;
20462;SDS011;10390;53.566;9.980;2023-01-23T11:50:54;7.50;;;5.03;;
20462;SDS011;10390;53.566;9.980;2023-01-23T11:53:42;7.57;;;5.00;;
20462;SDS011;10390;53.566;9.980;2023-01-23T11:59:25;7.13;;;4.72;;
20462;SDS011;10390;53.566;9.980;2023-01-23T12:07:56;8.48;;;5.57;;
20462;SDS011;10390;53.566;9.980;2023-01-23T12:10:48;7.75;;;5.57;;
20462;SDS011;10390;53.566;9.980;2023-01-23T12:13:52;7.80;;;5.65;;
20462;SDS011;10390;53.566;9.980;2023-01-23T12:28:13;7.95;;;5.80;;
20462;SDS011;10390;53.566;9.980;2023-01-23T12:41:30;9.70;;;6.28;;
20462;SDS011;10390;53.566;9.980;2023-01-23T12:44:11;8.10;;;5.97;;
20462;SDS011;10390;53.566;9.980;2023-01-23T12:49:37;8.30;;;5.75;;
20462;SDS011;10390;53.566;9.980;2023-01-23T12:52:10;9.18;;;6.40;;
20462;SDS011;10390;53.566;9.980;2023-01-23T12:55:02;8.43;;;5.90;;
20462;SDS011;10390;53.566;9.980;2023-01-23T12:57:36;8.25;;;6.57;;
20462;SDS011;10390;53.566;9.980;2023-01-23T13:00:15;9.18;;;6.28;;
20462;SDS011;10390;53.566;9.980;2023-01-23T13:06:01;9.20;;;6.43;;
20462;SDS011;10390;53.566;9.980;2023-01-23T13:08:45;8.57;;;5.95;;
20462;SDS011;10390;53.566;9.980;2023-01-23T13:16:57;10.48;;;7.20;;
20462;SDS011;10390;53.566;9.980;2023-01-23T13:19:27;10.60;;;7.00;;
20462;SDS011;10390;53.566;9.980;2023-01-23T13:22:26;10.38;;;7.30;;
20462;SDS011;10390;53.566;9.980;2023-01-23T13:27:49;11.32;;;8.02;;
20462;SDS011;10390;53.566;9.980;2023-01-23T13:32:51;11.20;;;8.00;;
20462;SDS011;10390;53.566;9.980;2023-01-23T13:43:40;14.20;;;9.48;;
20462;SDS011;10390;53.566;9.980;2023-01-23T13:46:09;11.77;;;8.68;;
20462;SDS011;10390;53.566;9.980;2023-01-23T13:52:03;11.60;;;8.35;;
20462;SDS011;10390;53.566;9.980;2023-01-23T13:54:54;10.63;;;7.40;;
20462;SDS011;10390;53.566;9.980;2023-01-23T13:57:38;12.05;;;8.02;;
20462;SDS011;10390;53.566;9.980;2023-01-23T14:00:05;11.73;;;7.95;;
20462;SDS011;10390;53.566;9.980;2023-01-23T14:02:42;10.63;;;7.00;;
20462;SDS011;10390;53.566;9.980;2023-01-23T14:05:36;10.13;;;7.68;;
20462;SDS011;10390;53.566;9.980;2023-01-23T14:08:04;11.48;;;7.88;;
20462;SDS011;10390;53.566;9.980;2023-01-23T14:10:32;11.57;;;8.35;;
20462;SDS011;10390;53.566;9.980;2023-01-23T14:13:03;10.85;;;7.82;;
20462;SDS011;10390;53.566;9.980;2023-01-23T14:15:29;11.13;;;7.20;;
20462;SDS011;10390;53.566;9.980;2023-01-23T14:18:19;9.55;;;7.05;;
20462;SDS011;10390;53.566;9.980;2023-01-23T14:20:58;10.88;;;6.95;;
20462;SDS011;10390;53.566;9.980;2023-01-23T14:23:27;9.82;;;7.68;;
20462;SDS011;10390;53.566;9.980;2023-01-23T14:26:03;10.82;;;7.50;;
20462;SDS011;10390;53.566;9.980;2023-01-23T14:28:30;9.88;;;7.10;;
20462;SDS011;10390;53.566;9.980;2023-01-23T14:31:00;10.43;;;7.05;;
20462;SDS011;10390;53.566;9.980;2023-01-23T14:33:36;11.02;;;7.57;;
20462;SDS011;10390;53.566;9.980;2023-01-23T14:36:11;10.60;;;7.53;;
20462;SDS011;10390;53.566;9.980;2023-01-23T14:38:43;11.98;;;8.48;;
20462;SDS011;10390;53.566;9.980;2023-01-23T14:41:11;11.13;;;7.88;;
20462;SDS011;10390;53.566;9.980;2023-01-23T14:43:37;10.38;;;8.25;;
20462;SDS011;10390;53.566;9.980;2023-01-23T14:46:08;10.73;;;7.43;;
20462;SDS011;10390;53.566;9.980;2023-01-23T14:48:37;11.35;;;8.20;;
20462;SDS011;10390;53.566;9.980;2023-01-23T14:51:17;11.32;;;8.30;;
20462;SDS011;10390;53.566;9.980;2023-01-23T14:53:48;11.18;;;8.27;;
20462;SDS011;10390;53.566;9.980;2023-01-23T14:56:38;11.98;;;9.15;;
20462;SDS011;10390;53.566;9.980;2023-01-23T14:59:07;12.70;;;8.82;;
20462;SDS011;10390;53.566;9.980;2023-01-23T15:01:57;10.82;;;8.27;;
20462;SDS011;10390;53.566;9.980;2023-01-23T15:04:25;10.68;;;8.10;;
20462;SDS011;10390;53.566;9.980;2023-01-23T15:06:55;9.88;;;7.90;;
20462;SDS011;10390;53.566;9.980;2023-01-23T15:12:05;10.05;;;7.85;;
20462;SDS011;10390;53.566;9.980;2023-01-23T15:14:39;11.23;;;8.15;;
20462;SDS011;10390;53.566;9.980;2023-01-23T15:17:26;9.75;;;7.25;;
20462;SDS011;10390;53.566;9.980;2023-01-23T15:19:52;10.45;;;7.38;;
20462;SDS011;10390;53.566;9.980;2023-01-23T15:22:27;11.57;;;7.90;;
20462;SDS011;10390;53.566;9.980;2023-01-23T15:24:54;11.40;;;8.43;;
20462;SDS011;10390;53.566;9.980;2023-01-23T15:27:25;10.73;;;7.95;;
20462;SDS011;10390;53.566;9.980;2023-01-23T15:32:59;10.80;;;7.78;;
20462;SDS011;10390;53.566;9.980;2023-01-23T15:35:32;12.10;;;7.97;;
20462;SDS011;10390;53.566;9.980;2023-01-23T15:37:58;9.88;;;6.93;;
20462;SDS011;10390;53.566;9.980;2023-01-23T15:40:29;12.98;;;8.70;;
20462;SDS011;10390;53.566;9.980;2023-01-23T15:43:16;11.65;;;7.45;;
20462;SDS011;10390;53.566;9.980;2023-01-23T15:45:43;14.65;;;7.90;;
20462;SDS011;10390;53.566;9.980;2023-01-23T15:48:08;10.10;;;7.88;;
20462;SDS011;10390;53.566;9.980;2023-01-23T15:50:34;11.95;;;8.77;;
20462;SDS011;10390;53.566;9.980;2023-01-23T15:53:00;14.23;;;8.27;;
20462;SDS011;10390;53.566;9.980;2023-01-23T15:55:26;10.80;;;7.97;;
20462;SDS011;10390;53.566;9.980;2023-01-23T15:57:53;12.55;;;8.68;;
20462;SDS011;10390;53.566;9.980;2023-01-23T16:02:48;14.43;;;8.35;;
20462;SDS011;10390;53.566;9.980;2023-01-23T16:05:16;12.73;;;8.18;;
20462;SDS011;10390;53.566;9.980;2023-01-23T16:07:45;11.52;;;8.15;;
20462;SDS011;10390;53.566;9.980;2023-01-23T16:12:43;12.20;;;8.25;;
20462;SDS011;10390;53.566;9.980;2023-01-23T16:15:18;11.00;;;8.00;;
20462;SDS011;10390;53.566;9.980;2023-01-23T16:17:44;12.75;;;8.18;;
20462;SDS011;10390;53.566;9.980;2023-01-23T16:20:14;13.85;;;8.27;;
20462;SDS011;10390;53.566;9.980;2023-01-23T16:22:44;11.98;;;7.82;;
20462;SDS011;10390;53.566;9.980;2023-01-23T16:25:16;10.63;;;7.43;;
20462;SDS011;10390;53.566;9.980;2023-01-23T16:27:46;11.30;;;7.88;;
20462;SDS011;10390;53.566;9.980;2023-01-23T16:30:18;10.13;;;6.93;;
20462;SDS011;10390;53.566;9.980;2023-01-23T16:32:45;10.88;;;7.22;;
20462;SDS011;10390;53.566;9.980;2023-01-23T16:35:11;9.98;;;7.13;;
20462;SDS011;10390;53.566;9.980;2023-01-23T16:37:39;10.05;;;7.13;;
20462;SDS011;10390;53.566;9.980;2023-01-23T16:40:30;11.82;;;7.45;;
20462;SDS011;10390;53.566;9.980;2023-01-23T16:42:56;10.32;;;7.68;;
20462;SDS011;10390;53.566;9.980;2023-01-23T16:45:23;13.40;;;7.57;;